This is the latest recevied weather packets stored in our database for station/object N4AN. If no packets are shown the sender has not sent any weather packets the latest 10 day(s).
| Time | Temp. | Humidity | Pressure | Rain* | Wind** | Luminosity | Snow |
|---|---|---|---|---|---|---|---|
| 1787595713 | 31.67° C | 69% | 1011.7 hPa | 0 mm | - | - | - |
| 1787595412 | 31.67° C | 69% | 1011.7 hPa | 0 mm | - | - | - |
| 1787595112 | 31.67° C | 68% | 1011.8 hPa | 0 mm | - | - | - |
| 1787594812 | 32.22° C | 68% | 1011.9 hPa | 0 mm | - | - | - |
| 1787594511 | 32.22° C | 67% | 1011.9 hPa | 0 mm | - | - | - |
| 1787594210 | 32.22° C | 65% | 1011.9 hPa | 0 mm | - | - | - |
| 1787593907 | 32.22° C | 64% | 1011.8 hPa | 0 mm | - | - | - |
| 1787593575 | 32.22° C | 64% | 1011.9 hPa | 0 mm | - | - | - |
| 1787593274 | 31.67° C | 66% | 1011.9 hPa | 0 mm | - | - | - |
| 1787592974 | 32.22° C | 67% | 1012 hPa | 0 mm | - | - | - |
| 1787592897 | 31.67° C | 68% | 1012 hPa | 0 mm | - | - | - |
| 1787592673 | 31.67° C | 68% | 1012 hPa | 0 mm | - | - | - |
| 1787592373 | 31.67° C | 69% | 1012.1 hPa | 0 mm | - | - | - |
| 1787592072 | 31.11° C | 70% | 1012.2 hPa | 0 mm | - | - | - |
| 1787591769 | 31.11° C | 69% | 1012.4 hPa | 0 mm | - | - | - |
| 1787591469 | 31.11° C | 70% | 1012.5 hPa | 0 mm | - | - | - |
| 1787591169 | 32.78° C | 66% | 1012.4 hPa | 0 mm | - | - | - |
| 1787590868 | 33.33° C | 67% | 1012.4 hPa | 0 mm | - | - | - |
| 1787590568 | 33.33° C | 66% | 1012.4 hPa | 0 mm | - | - | - |
| 1787590268 | 33.89° C | 65% | 1012.5 hPa | 0 mm | - | - | - |
| 1787589968 | 34.44° C | 64% | 1012.4 hPa | 0 mm | - | - | - |
| 1787589667 | 35.56° C | 62% | 1012.2 hPa | 0 mm | - | - | - |
| 1787589367 | 35.56° C | 63% | 1012.4 hPa | 0 mm | - | - | - |
| 1787589067 | 35.56° C | 64% | 1012.5 hPa | 0 mm | - | - | - |
| 1787588766 | 35° C | 63% | 1012.6 hPa | 0 mm | - | - | - |
* Rain latest hour (hover to see other rain measurements)
** Current wind speed in m/s (hover to see current wind gust speed)